Time;durP1;ratioP1;P1;durP2;ratioP2;P2;SDS_P1;SDS_P2;PMS_P1;PMS_P2;Temp;Humidity;BMP_temperature;BMP_pressure;BME280_temperature;BME280_humidity;BME280_pressure;Samples;Min_cycle;Max_cycle;Signal;HPM_P1;HPM_P2
2022/01/18 00:00:01;;;;;;;12.63;8.35;;;;;;;19.17;37.88;102154.59;5034778;28;20413;-79
2022/01/18 00:02:30;;;;;;;9.98;7.88;;;;;;;19.17;37.62;102162.66;5041542;28;20045;-79
2022/01/18 00:04:58;;;;;;;10.95;7.82;;;;;;;19.18;37.54;102156.31;5034425;28;20053;-79
2022/01/18 00:07:25;;;;;;;11.10;8.07;;;;;;;19.18;37.34;102161.69;5035002;28;20049;-79
2022/01/18 00:09:52;;;;;;;9.20;7.43;;;;;;;19.17;37.53;102165.34;5034629;28;20045;-79
2022/01/18 00:15:16;;;;;;;8.63;7.65;;;;;;;19.19;37.39;102178.66;5034541;28;20076;-79
2022/01/18 00:17:51;;;;;;;9.00;7.53;;;;;;;19.19;37.39;102181.31;5034147;28;20058;-79
2022/01/18 00:20:27;;;;;;;10.10;7.32;;;;;;;19.18;37.34;102180.47;5034228;28;20045;-79
2022/01/18 00:22:54;;;;;;;11.50;7.55;;;;;;;19.19;37.14;102174.13;5033594;28;20049;-79
2022/01/18 00:25:22;;;;;;;9.95;7.55;;;;;;;19.19;37.20;102179.50;5035146;28;20049;-78
2022/01/18 00:27:49;;;;;;;10.50;7.32;;;;;;;19.20;37.29;102177.69;5033173;28;20056;-79
2022/01/18 00:32:56;;;;;;;12.35;8.43;;;;;;;19.20;37.02;102191.09;5034608;28;20405;-79
2022/01/18 00:35:26;;;;;;;10.43;8.13;;;;;;;19.20;37.09;102193.78;5034803;28;20065;-79
2022/01/18 00:37:56;;;;;;;11.50;7.53;;;;;;;19.20;37.25;102207.22;5034976;28;20046;-78
2022/01/18 00:40:23;;;;;;;10.38;7.22;;;;;;;19.19;37.15;102192.94;5033923;28;20041;-79
2022/01/18 00:42:51;;;;;;;9.32;7.57;;;;;;;19.21;37.25;102201.75;5034061;28;20047;-78
2022/01/18 00:45:19;;;;;;;9.88;7.25;;;;;;;19.22;37.09;102213.34;5034161;28;20057;-78
2022/01/18 00:47:46;;;;;;;9.65;8.20;;;;;;;19.21;37.08;102223.25;5032528;28;20049;-78
2022/01/18 00:50:14;;;;;;;9.90;8.20;;;;;;;19.22;37.11;102227.66;5034346;28;20053;-78
2022/01/18 00:52:43;;;;;;;9.50;7.68;;;;;;;19.22;37.23;102221.41;5032660;28;20477;-78
2022/01/18 00:55:13;;;;;;;10.88;8.60;;;;;;;19.23;37.31;102224.00;5033727;28;20056;-78
2022/01/18 00:57:40;;;;;;;11.00;8.07;;;;;;;19.23;37.30;102232.03;5033495;28;20042;-78
2022/01/18 01:00:08;;;;;;;10.77;7.95;;;;;;;19.24;37.25;102236.47;5033709;28;20052;-79
2022/01/18 01:02:35;;;;;;;12.55;9.02;;;;;;;19.23;37.24;102239.25;5033775;28;20045;-78
2022/01/18 01:05:03;;;;;;;11.27;7.95;;;;;;;19.24;37.25;102239.16;5034106;28;20068;-78
2022/01/18 01:07:31;;;;;;;10.10;8.27;;;;;;;19.25;37.26;102248.06;5033446;28;20052;-78
2022/01/18 01:10:18;;;;;;;10.55;7.82;;;;;;;19.24;37.27;102254.38;5034201;28;20057;-78
2022/01/18 01:12:45;;;;;;;12.18;8.05;;;;;;;19.24;37.38;102249.00;5033411;28;20046;-78
2022/01/18 01:15:15;;;;;;;9.05;7.72;;;;;;;19.24;37.25;102257.97;5033381;28;20048;-79
2022/01/18 01:18:06;;;;;;;9.27;8.27;;;;;;;19.25;37.36;102258.81;5033127;28;20053;-79
2022/01/18 01:34:53;;;;;;;9.35;7.88;;;;;;;19.25;37.37;102278.47;5033900;28;20056;-79
2022/01/18 01:45:35;;;;;;;12.05;9.13;;;;;;;19.24;37.41;102281.22;5031847;28;20049;-79
2022/01/18 01:48:03;;;;;;;13.02;9.50;;;;;;;19.24;37.42;102276.75;5031814;28;20398;-79
2022/01/18 01:50:49;;;;;;;10.90;8.07;;;;;;;19.23;37.20;102272.31;5033038;28;20068;-79
2022/01/18 01:53:20;;;;;;;10.15;8.20;;;;;;;19.23;37.28;102269.63;5033840;28;20041;-79
2022/01/18 01:55:48;;;;;;;10.20;8.48;;;;;;;19.24;37.29;102265.13;5037237;28;20053;-79
2022/01/18 01:58:16;;;;;;;11.38;8.93;;;;;;;19.24;37.57;102270.50;5036755;28;20049;-79
2022/01/18 02:00:48;;;;;;;13.77;9.40;;;;;;;19.23;37.42;102274.13;5037366;28;20057;-78
2022/01/18 02:03:16;;;;;;;13.02;9.10;;;;;;;19.23;37.12;102279.50;5037129;28;20053;-78
2022/01/18 02:05:45;;;;;;;13.15;8.65;;;;;;;19.23;37.26;102275.00;5036816;28;20049;-79
2022/01/18 02:08:14;;;;;;;12.80;9.75;;;;;;;19.23;37.05;102269.63;5035384;28;20061;-79
2022/01/18 02:10:43;;;;;;;12.73;9.35;;;;;;;19.23;37.24;102272.31;5036609;28;20489;-79
2022/01/18 02:13:14;;;;;;;13.02;8.85;;;;;;;19.23;37.18;102269.63;5035731;28;20048;-79
2022/01/18 02:16:09;;;;;;;12.02;8.75;;;;;;;19.23;37.11;102264.25;5035850;28;20056;-79
2022/01/18 02:24:11;;;;;;;13.43;9.73;;;;;;;19.24;36.61;102255.28;5036831;28;20054;-78
2022/01/18 02:26:39;;;;;;;14.48;9.48;;;;;;;19.24;36.49;102254.38;5036161;28;20049;-79
2022/01/18 02:29:08;;;;;;;13.50;9.13;;;;;;;19.24;36.56;102244.53;5036300;28;20469;-78
2022/01/18 02:31:36;;;;;;;13.82;10.02;;;;;;;19.24;36.59;102247.22;5036238;28;20049;-78
2022/01/18 02:34:12;;;;;;;13.27;10.00;;;;;;;19.24;36.71;102244.53;5036704;28;20402;-79
2022/01/18 02:36:40;;;;;;;12.23;9.82;;;;;;;19.23;36.58;102256.22;5035877;28;20053;-78
2022/01/18 02:39:08;;;;;;;12.52;9.50;;;;;;;19.23;36.42;102264.25;5036321;28;20072;-79
2022/01/18 02:41:36;;;;;;;13.20;9.30;;;;;;;19.23;36.66;102263.41;5036402;28;20065;-78
2022/01/18 02:44:13;;;;;;;13.93;9.65;;;;;;;19.22;36.60;102267.91;5036157;28;20072;-78
2022/01/18 02:46:44;;;;;;;10.35;8.63;;;;;;;19.21;36.68;102276.94;5037081;28;20053;-78
2022/01/18 02:49:13;;;;;;;12.73;9.07;;;;;;;19.18;36.82;102269.06;5036631;28;20068;-78
2022/01/18 02:51:41;;;;;;;11.73;8.48;;;;;;;19.20;36.79;102268.97;5036102;28;20377;-78
2022/01/18 02:54:11;;;;;;;12.65;9.30;;;;;;;19.19;36.63;102272.59;5035888;28;20049;-78
2022/01/18 02:56:44;;;;;;;12.15;9.45;;;;;;;19.18;36.54;102279.81;5034702;28;20523;-79
2022/01/18 02:59:22;;;;;;;13.13;9.18;;;;;;;19.19;36.49;102277.97;5036697;28;20476;-79
2022/01/18 03:04:41;;;;;;;11.57;8.60;;;;;;;19.19;36.56;102284.22;5036260;28;20104;-79
2022/01/18 03:07:09;;;;;;;11.98;9.65;;;;;;;19.19;36.27;102278.84;5035349;28;20401;-78
2022/01/18 03:09:37;;;;;;;12.88;9.75;;;;;;;19.19;36.45;102277.97;5034579;28;20057;-78
2022/01/18 03:12:06;;;;;;;13.00;9.23;;;;;;;19.19;36.30;102278.84;5036098;28;20041;-78
2022/01/18 03:14:34;;;;;;;13.50;9.68;;;;;;;19.19;36.24;102296.78;5035860;28;20046;-78
2022/01/18 03:17:02;;;;;;;11.38;8.73;;;;;;;19.19;36.14;102297.63;5036002;28;20508;-78
2022/01/18 03:19:29;;;;;;;11.70;9.38;;;;;;;19.20;36.27;102302.06;5034279;28;20061;-79
2022/01/18 03:21:57;;;;;;;14.40;9.20;;;;;;;19.20;36.41;102306.53;5034758;28;20053;-79
2022/01/18 03:29:39;;;;;;;12.65;8.95;;;;;;;19.20;36.18;102291.31;5036027;28;20496;-79
2022/01/18 03:32:07;;;;;;;13.00;10.20;;;;;;;19.20;36.56;102291.31;5035625;28;20470;-79
2022/01/18 03:34:35;;;;;;;11.43;8.88;;;;;;;19.20;36.29;102294.00;5035180;28;20053;-79
2022/01/18 03:37:03;;;;;;;11.57;8.27;;;;;;;19.20;36.16;102304.75;5035246;28;20041;-79
2022/01/18 03:39:30;;;;;;;9.95;8.60;;;;;;;19.20;36.18;102315.50;5035841;28;20553;-79
2022/01/18 03:42:17;;;;;;;11.23;8.65;;;;;;;19.21;36.18;102319.03;5035560;28;20056;-79
2022/01/18 03:44:47;;;;;;;14.55;9.10;;;;;;;19.20;36.16;102312.81;5035443;28;20053;-79
2022/01/18 03:47:19;;;;;;;10.70;8.50;;;;;;;19.20;36.03;102320.84;5035694;28;20050;-79
2022/01/18 03:49:46;;;;;;;12.13;9.20;;;;;;;19.20;36.12;102323.53;5035717;28;20052;-79
2022/01/18 03:52:14;;;;;;;11.05;8.77;;;;;;;19.21;36.14;102327.09;5034758;28;20592;-78
2022/01/18 03:54:44;;;;;;;11.65;8.63;;;;;;;19.20;36.08;102328.03;5034923;28;20048;-78
2022/01/18 03:57:11;;;;;;;9.63;8.05;;;;;;;19.20;36.26;102328.03;5034686;28;20049;-78
2022/01/18 03:59:38;;;;;;;9.55;8.50;;;;;;;19.21;35.94;102345.88;5035436;28;20053;-78
2022/01/18 04:02:07;;;;;;;12.48;9.07;;;;;;;19.20;36.07;102339.66;5034865;28;20487;-79
2022/01/18 04:04:36;;;;;;;12.75;8.82;;;;;;;19.20;35.98;102350.38;5034183;28;20045;-78
2022/01/18 04:07:04;;;;;;;12.55;9.45;;;;;;;19.20;35.76;102344.13;5035440;28;20053;-79
2022/01/18 04:09:32;;;;;;;10.70;8.90;;;;;;;19.19;36.07;102348.63;5033912;28;20060;-79
2022/01/18 04:12:00;;;;;;;10.20;8.80;;;;;;;19.19;36.03;102359.38;5033277;28;20065;-79
2022/01/18 04:14:28;;;;;;;13.07;9.07;;;;;;;19.19;35.93;102362.06;5035173;28;20076;-79
2022/01/18 04:17:32;;;;;;;10.88;8.68;;;;;;;19.19;35.93;102361.19;5033853;28;20049;-79
2022/01/18 04:28:03;;;;;;;10.75;8.70;;;;;;;19.19;35.96;102380.00;5034726;28;20045;-79
2022/01/18 04:30:30;;;;;;;10.38;8.43;;;;;;;19.19;36.03;102383.53;5034980;28;20046;-79
2022/01/18 04:32:57;;;;;;;13.25;9.35;;;;;;;19.19;35.80;102390.72;5034001;28;20056;-78
2022/01/18 04:35:25;;;;;;;12.93;8.65;;;;;;;19.20;35.83;102392.44;5033383;28;20050;-78
2022/01/18 04:37:53;;;;;;;11.82;9.10;;;;;;;19.18;35.96;102397.94;5033994;28;20401;-78
2022/01/18 04:40:26;;;;;;;9.45;7.93;;;;;;;19.18;35.87;102405.97;5033541;28;20045;-78
2022/01/18 04:51:11;;;;;;;12.10;8.98;;;;;;;19.19;35.71;102414.91;5031904;28;20075;-78
2022/01/18 04:53:43;;;;;;;11.32;9.05;;;;;;;19.18;35.63;102424.78;5015818;28;20042;-78
2022/01/18 04:56:15;;;;;;;14.15;9.88;;;;;;;19.17;35.66;102436.47;5016186;28;20072;-78
2022/01/18 04:58:43;;;;;;;10.80;9.40;;;;;;;19.18;35.62;102443.56;5032429;28;20057;-78
2022/01/18 05:01:12;;;;;;;16.20;8.43;;;;;;;19.18;35.51;102454.31;5014926;28;20064;-78
2022/01/18 05:03:40;;;;;;;11.32;8.55;;;;;;;19.19;35.52;102457.84;5031412;28;20056;-79
2022/01/18 05:06:09;;;;;;;10.43;8.55;;;;;;;19.19;35.71;102453.34;5032081;28;20064;-78
2022/01/18 05:08:37;;;;;;;15.00;8.57;;;;;;;19.18;35.48;102456.13;5032077;28;20457;-79
2022/01/18 05:11:07;;;;;;;11.55;8.68;;;;;;;19.18;35.58;102457.00;5031162;28;20065;-79
2022/01/18 05:16:53;;;;;;;10.27;8.27;;;;;;;19.18;35.75;102469.56;5031463;28;20057;-79
2022/01/18 05:19:09;;;;;;;11.93;9.70;;;;;;;19.17;35.69;102468.69;5009229;28;20401;-78
2022/01/18 05:24:26;;;;;;;13.55;9.13;;;;;;;19.18;36.01;102482.97;5031020;28;20054;-78
2022/01/18 05:26:54;;;;;;;10.13;8.38;;;;;;;19.17;35.54;102475.91;5032195;28;20061;-78
2022/01/18 05:29:23;;;;;;;10.68;8.50;;;;;;;19.17;35.76;102490.19;5032988;28;20045;-78
2022/01/18 05:31:50;;;;;;;15.38;9.10;;;;;;;19.16;35.68;102491.13;5032934;28;20049;-79
2022/01/18 05:34:18;;;;;;;11.45;8.75;;;;;;;19.16;35.86;102491.13;5033172;28;20037;-78
2022/01/18 05:36:46;;;;;;;11.65;9.15;;;;;;;19.17;35.67;102495.53;5033202;28;20045;-79
2022/01/18 05:39:14;;;;;;;10.73;8.57;;;;;;;19.16;35.77;102493.81;5032142;28;20060;-78
2022/01/18 05:41:43;;;;;;;11.15;9.05;;;;;;;19.17;35.95;102492.88;5032285;28;20053;-78
2022/01/18 05:44:10;;;;;;;12.00;9.30;;;;;;;19.14;35.97;102490.34;5033028;28;20037;-78
2022/01/18 05:46:39;;;;;;;11.85;9.38;;;;;;;19.15;35.82;102492.06;5032902;28;20049;-77
2022/01/18 05:49:09;;;;;;;14.60;9.80;;;;;;;19.16;35.93;102487.56;5033951;28;20045;-78
2022/01/18 05:51:37;;;;;;;10.57;8.82;;;;;;;19.15;35.83;102497.44;5033743;28;20049;-77
2022/01/18 05:54:05;;;;;;;10.88;8.75;;;;;;;19.15;35.77;102502.81;5033433;28;20369;-78
2022/01/18 05:56:33;;;;;;;10.55;8.98;;;;;;;19.15;35.91;102508.19;5032964;28;20048;-79
2022/01/18 05:59:03;;;;;;;11.40;9.52;;;;;;;19.16;36.01;102506.34;5031475;28;20049;-79
2022/01/18 06:01:38;;;;;;;9.70;8.70;;;;;;;19.16;35.95;102511.72;5032991;28;20045;-79
2022/01/18 06:04:13;;;;;;;12.25;9.45;;;;;;;19.14;36.19;102525.25;5033832;28;20072;-79
2022/01/18 06:06:51;;;;;;;10.77;9.18;;;;;;;19.15;36.11;102528.78;5033424;28;20037;-79
2022/01/18 06:09:20;;;;;;;13.15;10.10;;;;;;;19.15;35.95;102521.59;5031834;28;20056;-78
2022/01/18 06:11:47;;;;;;;11.15;9.35;;;;;;;19.13;36.10;102530.72;5031046;28;20061;-78
2022/01/18 06:14:15;;;;;;;11.25;8.77;;;;;;;19.15;36.20;102537.72;5032735;28;20401;-78
2022/01/18 06:16:43;;;;;;;13.32;8.93;;;;;;;19.15;36.21;102539.53;5032554;28;20041;-78
2022/01/18 06:19:11;;;;;;;10.55;9.07;;;;;;;19.14;36.08;102538.66;5032872;28;20053;-77
2022/01/18 06:21:39;;;;;;;11.68;9.80;;;;;;;19.13;36.33;102536.94;5031025;28;20524;-78
2022/01/18 06:24:09;;;;;;;13.48;9.90;;;;;;;19.14;36.52;102537.81;5031875;28;20046;-79
2022/01/18 06:26:56;;;;;;;14.02;9.52;;;;;;;19.11;36.71;102533.47;5032880;28;20052;-78
2022/01/18 06:29:24;;;;;;;12.15;9.50;;;;;;;19.09;36.80;102537.22;5033318;28;20049;-79
2022/01/18 06:31:51;;;;;;;15.07;10.15;;;;;;;19.05;37.07;102541.91;5032402;28;20046;-79
2022/01/18 06:34:19;;;;;;;11.48;9.07;;;;;;;19.06;37.04;102551.66;5032391;28;20452;-79
2022/01/18 06:36:47;;;;;;;15.80;10.80;;;;;;;19.05;37.22;102559.81;5031237;28;20053;-78
2022/01/18 06:39:16;;;;;;;14.10;9.90;;;;;;;19.03;37.11;102555.38;5032618;28;20049;-78
2022/01/18 06:41:45;;;;;;;14.15;10.55;;;;;;;19.03;36.90;102559.91;5036410;28;20049;-78
2022/01/18 06:44:13;;;;;;;18.35;11.00;;;;;;;19.02;37.12;102552.81;5036862;28;20044;-78
2022/01/18 06:46:41;;;;;;;15.02;11.20;;;;;;;19.03;37.06;102559.91;5036599;28;20053;-77
2022/01/18 06:49:09;;;;;;;14.73;10.43;;;;;;;19.02;37.19;102556.34;5018794;28;20058;-77
2022/01/18 06:51:36;;;;;;;17.30;10.98;;;;;;;19.02;37.12;102558.16;5036718;28;20045;-78
2022/01/18 06:54:03;;;;;;;16.25;11.82;;;;;;;19.02;37.17;102558.16;5034750;28;20056;-78
2022/01/18 06:56:31;;;;;;;17.75;11.43;;;;;;;19.02;37.16;102561.72;5035175;28;20045;-77
2022/01/18 06:58:59;;;;;;;17.58;11.32;;;;;;;19.02;37.14;102568.91;5035709;28;20049;-78
2022/01/18 07:01:27;;;;;;;16.88;10.75;;;;;;;19.00;37.22;102560.09;5036408;28;20347;-79
2022/01/18 07:03:54;;;;;;;15.93;11.85;;;;;;;19.01;37.17;102564.50;5034309;28;20054;-79
2022/01/18 07:06:22;;;;;;;16.35;11.48;;;;;;;19.00;37.33;102571.69;5036043;28;20050;-79
2022/01/18 07:08:49;;;;;;;13.23;10.30;;;;;;;19.00;37.61;102569.00;5036301;28;20049;-79
2022/01/18 07:11:17;;;;;;;17.40;11.85;;;;;;;18.99;37.57;102572.63;5036069;28;20049;-80
2022/01/18 07:13:44;;;;;;;16.17;11.90;;;;;;;18.99;37.49;102569.94;5035630;28;20046;-79
2022/01/18 07:16:12;;;;;;;16.23;11.85;;;;;;;19.00;37.58;102579.75;5034042;28;20061;-80
2022/01/18 07:18:39;;;;;;;14.23;11.57;;;;;;;18.99;37.47;102572.63;5033900;28;20058;-78
2022/01/18 07:21:09;;;;;;;15.15;11.88;;;;;;;19.01;37.53;102581.47;5035814;28;20064;-78
2022/01/18 07:23:37;;;;;;;18.00;11.82;;;;;;;19.02;37.94;102587.69;5035471;28;20049;-79
2022/01/18 07:26:09;;;;;;;;;;;;;;;19.03;37.71;102589.41;5036185;28;20064;-79
2022/01/18 07:28:37;;;;;;;22.08;12.93;;;;;;;19.01;38.13;102585.97;5035185;28;19929;-79
2022/01/18 07:31:04;;;;;;;16.33;12.35;;;;;;;19.01;37.65;102592.19;5035273;28;20378;-79
2022/01/18 07:33:31;;;;;;;16.50;12.30;;;;;;;19.02;38.22;102598.44;5035524;28;20045;-79
2022/01/18 07:35:59;;;;;;;18.73;13.20;;;;;;;18.99;38.30;102601.28;5035701;28;20053;-80
2022/01/18 07:38:27;;;;;;;30.55;22.58;;;;;;;18.94;37.39;102620.34;5035477;28;20052;-79
2022/01/18 07:40:54;;;;;;;22.95;17.15;;;;;;;18.90;37.61;102624.13;5034632;28;20046;-79
2022/01/18 07:43:22;;;;;;;25.92;18.27;;;;;;;18.87;37.89;102613.56;5034500;28;20060;-78
2022/01/18 07:45:50;;;;;;;23.17;17.90;;;;;;;18.86;37.61;102613.66;5034832;28;20041;-78
2022/01/18 07:48:23;;;;;;;24.88;17.95;;;;;;;18.85;37.77;102622.69;5034949;28;20072;-78
2022/01/18 07:50:53;;;;;;;25.92;18.10;;;;;;;18.84;37.82;102626.28;5033490;28;20064;-77
2022/01/18 07:53:21;;;;;;;29.23;20.33;;;;;;;18.84;37.82;102632.53;5035002;28;20057;-78
2022/01/18 07:55:49;;;;;;;23.92;18.33;;;;;;;18.85;37.77;102638.78;5034824;28;20057;-78
2022/01/18 07:58:16;;;;;;;22.55;18.02;;;;;;;18.86;38.04;102640.50;5033552;28;20057;-78
2022/01/18 08:00:47;;;;;;;20.42;16.98;;;;;;;18.86;37.83;102636.00;5034911;28;20053;-78
2022/01/18 08:03:15;;;;;;;22.15;16.33;;;;;;;18.86;37.87;102640.50;5034413;28;20052;-78
2022/01/18 08:05:43;;;;;;;25.08;17.27;;;;;;;18.88;37.59;102652.00;5034607;28;20064;-78
2022/01/18 08:08:10;;;;;;;18.10;15.60;;;;;;;18.87;37.86;102653.81;5034943;28;20049;-78
2022/01/18 08:10:39;;;;;;;18.63;15.25;;;;;;;18.88;37.73;102654.69;5034636;28;20488;-78
2022/01/18 08:13:07;;;;;;;18.75;15.13;;;;;;;18.88;37.68;102657.38;5033215;28;20049;-78
2022/01/18 08:15:38;;;;;;;16.60;14.50;;;;;;;18.89;37.85;102661.81;5033227;28;20056;-78
2022/01/18 08:18:11;;;;;;;21.00;14.55;;;;;;;18.89;37.78;102665.34;5014941;28;20053;-78
2022/01/18 08:20:39;;;;;;;15.93;14.23;;;;;;;18.89;37.75;102667.19;5013792;28;20046;-77
2022/01/18 08:23:07;;;;;;;18.50;15.02;;;;;;;18.91;37.63;102668.81;5014499;28;20042;-78
2022/01/18 08:25:35;;;;;;;18.55;14.13;;;;;;;18.90;37.77;102679.63;5013431;28;20045;-78
2022/01/18 08:28:02;;;;;;;20.00;14.23;;;;;;;18.91;37.84;102679.53;5013232;28;20478;-78
2022/01/18 08:30:30;;;;;;;18.33;13.93;;;;;;;18.91;37.58;102686.72;5013177;28;20057;-78
2022/01/18 08:32:58;;;;;;;19.80;14.18;;;;;;;18.91;37.52;102681.34;5014379;28;20042;-78
2022/01/18 08:35:26;;;;;;;17.00;14.05;;;;;;;18.91;37.98;102684.03;5012677;28;20057;-78
2022/01/18 08:37:53;;;;;;;18.45;13.48;;;;;;;18.91;37.81;102673.31;5012986;28;20061;-78
2022/01/18 08:40:20;;;;;;;18.30;13.85;;;;;;;18.92;37.71;102685.78;5014228;28;20058;-78
2022/01/18 08:42:48;;;;;;;15.95;12.13;;;;;;;18.91;37.57;102682.22;5014258;28;20057;-78
2022/01/18 08:45:16;;;;;;;15.90;13.00;;;;;;;18.90;37.83;102688.56;5013882;28;20038;-78
2022/01/18 08:47:48;;;;;;;19.50;13.95;;;;;;;18.91;37.64;102695.63;5013909;28;20410;-78
2022/01/18 08:50:17;;;;;;;17.80;13.07;;;;;;;18.91;37.76;102701.00;5013039;28;20054;-77
2022/01/18 08:52:50;;;;;;;15.30;12.20;;;;;;;18.90;37.81;102696.59;5013900;28;20056;-77
2022/01/18 08:55:21;;;;;;;;;;;;;;;18.90;37.65;102711.84;5014228;28;20056;-77
2022/01/18 08:57:48;;;;;;;16.77;11.77;;;;;;;18.92;37.74;102712.59;5013903;28;19921;-77
2022/01/18 09:00:18;;;;;;;13.88;12.13;;;;;;;18.91;37.79;102716.25;5012850;28;20056;-76
2022/01/18 09:02:48;;;;;;;16.90;13.00;;;;;;;18.90;37.93;102723.44;5012418;28;20054;-77
2022/01/18 09:05:16;;;;;;;17.95;12.73;;;;;;;18.89;38.00;102716.34;5012234;28;20050;-77
2022/01/18 09:07:44;;;;;;;14.82;12.48;;;;;;;18.89;37.91;102718.16;5012280;28;20058;-78
2022/01/18 09:10:12;;;;;;;14.55;12.55;;;;;;;18.89;37.80;102726.22;5013666;28;20105;-77
2022/01/18 09:12:39;;;;;;;14.20;11.98;;;;;;;18.87;37.85;102734.34;5013740;28;20056;-77
2022/01/18 09:15:09;;;;;;;16.95;13.63;;;;;;;18.87;37.99;102745.06;5012461;28;20387;-77
2022/01/18 09:17:39;;;;;;;16.45;12.85;;;;;;;18.87;38.03;102747.75;5013260;28;20065;-77
2022/01/18 09:20:09;;;;;;;14.70;11.65;;;;;;;18.87;37.91;102754.94;5013591;28;20042;-77
2022/01/18 09:22:39;;;;;;;15.25;12.18;;;;;;;18.86;37.99;102758.56;5013732;28;20046;-77
2022/01/18 09:25:10;;;;;;;14.27;11.45;;;;;;;18.86;38.02;102753.22;5012057;28;20064;-77
2022/01/18 09:27:38;;;;;;;15.13;11.75;;;;;;;18.86;37.59;102766.63;5013806;28;20387;-77
2022/01/18 09:30:06;;;;;;;14.38;11.95;;;;;;;18.85;37.85;102767.59;5011518;28;20065;-77
2022/01/18 09:32:33;;;;;;;13.77;11.65;;;;;;;18.87;38.10;102762.97;5012212;28;20371;-77
2022/01/18 09:35:01;;;;;;;13.82;12.32;;;;;;;18.86;37.97;102772.00;5013330;28;20042;-77
2022/01/18 09:37:29;;;;;;;17.10;12.45;;;;;;;18.86;38.02;102777.38;5013234;28;20052;-77
2022/01/18 09:39:57;;;;;;;13.50;12.05;;;;;;;18.87;37.97;102774.59;5013156;28;20524;-77
2022/01/18 09:42:33;;;;;;;13.65;11.07;;;;;;;18.86;37.88;102783.59;5013718;28;20046;-77
2022/01/18 09:45:07;;;;;;;12.80;11.50;;;;;;;18.86;37.97;102780.91;5013530;28;20046;-77
2022/01/18 09:47:35;;;;;;;12.98;11.30;;;;;;;18.86;37.98;102783.59;5013454;28;20050;-78
2022/01/18 09:50:06;;;;;;;13.20;11.45;;;;;;;18.86;38.04;102797.00;5013441;28;20057;-77
2022/01/18 09:52:33;;;;;;;18.48;11.68;;;;;;;18.85;38.07;102795.28;5012213;28;20049;-78
2022/01/18 09:55:01;;;;;;;12.25;10.63;;;;;;;18.85;38.09;102799.78;5013118;28;20042;-78
2022/01/18 09:57:30;;;;;;;13.20;11.23;;;;;;;18.85;38.05;102794.41;5013100;28;20049;-78
2022/01/18 09:59:59;;;;;;;13.73;11.75;;;;;;;18.85;38.13;102797.09;5013213;28;20132;-77
2022/01/18 10:02:27;;;;;;;13.75;11.70;;;;;;;18.86;38.09;102793.47;5012791;28;20057;-78
2022/01/18 10:04:57;;;;;;;12.98;10.88;;;;;;;18.85;38.15;102795.28;5013099;28;20481;-78
2022/01/18 10:07:35;;;;;;;12.30;10.70;;;;;;;18.86;37.98;102790.78;5011595;28;20421;-78
2022/01/18 10:10:06;;;;;;;13.60;11.85;;;;;;;18.85;38.26;102789.91;5013204;28;20052;-78
2022/01/18 10:12:33;;;;;;;15.18;12.02;;;;;;;18.86;38.13;102790.78;5013189;28;20064;-78
2022/01/18 10:15:03;;;;;;;14.80;11.77;;;;;;;18.86;38.11;102799.69;4996451;28;20513;-78
2022/01/18 10:17:40;;;;;;;14.90;12.38;;;;;;;18.86;38.07;102796.16;5016629;28;20065;-77
2022/01/18 10:20:17;;;;;;;12.75;11.45;;;;;;;18.86;38.20;102805.06;5017300;28;20057;-77
2022/01/18 10:22:49;;;;;;;13.68;11.05;;;;;;;18.87;38.04;102808.59;5017166;28;20050;-77
2022/01/18 10:25:24;;;;;;;12.68;11.20;;;;;;;18.86;38.14;102805.06;5016672;28;20378;-77
2022/01/18 10:27:54;;;;;;;13.82;11.63;;;;;;;18.87;38.18;102811.28;5017191;28;20045;-77
2022/01/18 10:30:47;;;;;;;15.70;12.13;;;;;;;18.87;38.13;102811.28;5016969;28;20046;-77
2022/01/18 10:33:18;;;;;;;13.98;12.45;;;;;;;18.87;38.16;102797.88;5015446;28;20050;-77
2022/01/18 10:36:12;;;;;;;14.13;12.13;;;;;;;18.88;38.16;102807.66;5016725;28;20485;-77
2022/01/18 10:38:44;;;;;;;;;;;;;;;18.86;38.09;102804.19;5017073;28;20406;-77
2022/01/18 10:41:40;;;;;;;13.02;11.60;;;;;;;18.87;38.04;102793.38;5015131;28;19928;-77
2022/01/18 10:44:12;;;;;;;13.45;11.82;;;;;;;18.86;38.24;102796.16;5012022;28;20494;-77
2022/01/18 10:46:42;;;;;;;14.00;11.82;;;;;;;18.86;38.10;102796.16;5016630;28;20046;-77
2022/01/18 10:49:10;;;;;;;12.43;11.05;;;;;;;18.85;38.28;102795.28;5016223;28;20057;-77
2022/01/18 10:51:40;;;;;;;12.18;10.88;;;;;;;18.86;38.20;102796.16;5016083;28;20447;-77
2022/01/18 10:54:09;;;;;;;13.07;11.52;;;;;;;18.85;38.25;102797.09;5016220;28;20053;-77
2022/01/18 10:56:44;;;;;;;12.77;11.07;;;;;;;18.84;38.24;102806.06;5016101;28;20054;-78
2022/01/18 10:59:23;;;;;;;12.48;10.85;;;;;;;18.83;39.05;102799.00;5016105;28;20050;-78
2022/01/18 11:02:10;;;;;;;13.40;11.60;;;;;;;18.82;39.09;102795.44;5016215;28;20409;-78
2022/01/18 11:04:38;;;;;;;12.50;10.48;;;;;;;18.83;39.04;102785.56;5016152;28;20053;-76
2022/01/18 11:07:06;;;;;;;28.92;23.42;;;;;;;18.75;38.26;102792.19;5015756;28;20048;-77
2022/01/18 11:09:33;;;;;;;43.45;34.78;;;;;;;18.35;37.88;102795.16;5016493;28;20508;-77
2022/01/18 11:12:02;;;;;;;41.80;34.33;;;;;;;17.86;38.69;102794.91;5015752;28;20050;-77
2022/01/18 11:14:30;;;;;;;41.63;32.85;;;;;;;17.57;39.61;102791.81;5016049;28;20401;-76
2022/01/18 11:16:59;;;;;;;44.65;34.78;;;;;;;17.31;39.76;102790.34;5015794;28;20046;-76
2022/01/18 11:19:33;;;;;;;44.72;35.40;;;;;;;17.07;40.43;102792.34;5015568;28;20062;-77
2022/01/18 11:22:10;;;;;;;34.47;28.65;;;;;;;17.13;42.81;102791.19;5015852;28;20042;-76
2022/01/18 11:24:44;;;;;;;26.95;20.85;;;;;;;17.28;43.74;102787.81;5015824;28;20054;-77
2022/01/18 11:27:14;;;;;;;20.33;17.00;;;;;;;17.42;43.57;102782.69;5014456;28;20053;-77
2022/01/18 11:29:46;;;;;;;23.30;17.63;;;;;;;17.55;43.46;102791.88;5015953;28;20050;-77
2022/01/18 11:32:16;;;;;;;18.63;15.75;;;;;;;17.66;43.09;102794.06;5015963;28;20054;-77
2022/01/18 11:35:10;;;;;;;18.30;15.57;;;;;;;17.77;43.35;102796.25;5015436;28;20532;-76
2022/01/18 11:37:57;;;;;;;;;;;;;;;17.83;43.18;102787.94;5016022;28;20390;-77
2022/01/18 11:40:26;;;;;;;18.55;14.23;;;;;;;17.89;43.68;102797.47;5015476;28;19922;-76
2022/01/18 11:42:56;;;;;;;19.77;15.85;;;;;;;17.95;43.75;102794.50;5015118;28;20057;-77
2022/01/18 11:45:33;;;;;;;15.43;13.32;;;;;;;17.99;43.80;102796.09;5014991;28;20069;-77
2022/01/18 11:48:08;;;;;;;16.88;13.82;;;;;;;18.02;43.52;102794.09;5014324;28;20046;-77
2022/01/18 11:50:40;;;;;;;15.13;12.50;;;;;;;18.06;43.98;102800.19;5014868;28;20050;-77
2022/01/18 11:53:44;;;;;;;13.90;12.40;;;;;;;18.10;43.98;102798.22;5015239;28;20045;-77
2022/01/18 11:56:15;;;;;;;13.85;12.23;;;;;;;18.11;44.22;102792.78;5013523;28;20072;-77
2022/01/18 11:58:43;;;;;;;15.60;13.02;;;;;;;18.13;44.17;102790.91;5014859;28;20053;-77
2022/01/18 12:01:12;;;;;;;13.85;12.05;;;;;;;18.15;44.55;102791.69;5014953;28;20045;-77
2022/01/18 12:03:45;;;;;;;14.30;12.70;;;;;;;18.17;44.40;102787.13;5015063;28;20046;-77
2022/01/18 12:06:13;;;;;;;16.13;12.43;;;;;;;18.18;44.26;102794.22;5014923;28;20069;-76
2022/01/18 12:08:45;;;;;;;14.15;12.52;;;;;;;18.19;44.18;102789.72;5013331;28;20057;-77
2022/01/18 12:11:19;;;;;;;15.02;12.10;;;;;;;18.21;44.25;102787.84;5014959;28;20053;-77
2022/01/18 12:13:47;;;;;;;15.52;11.75;;;;;;;18.21;44.33;102787.84;5014752;28;20478;-77
2022/01/18 12:16:21;;;;;;;16.33;12.30;;;;;;;18.21;44.55;102782.47;5013448;28;20044;-77
2022/01/18 12:19:00;;;;;;;20.25;14.13;;;;;;;18.24;44.50;102787.69;5013528;28;20057;-76
2022/01/18 12:21:29;;;;;;;29.60;16.58;;;;;;;18.23;44.72;102777.88;5013474;28;20050;-77
2022/01/18 12:24:13;;;;;;;35.75;18.23;;;;;;;18.23;44.75;102773.41;5013162;28;20053;-77
2022/01/18 12:26:45;;;;;;;36.60;18.42;;;;;;;18.23;44.66;102781.47;5014329;28;20053;-77
2022/01/18 12:34:29;;;;;;;33.13;18.08;;;;;;;18.25;45.02;102770.66;5014204;28;20062;-76
2022/01/18 12:37:06;;;;;;;32.85;17.70;;;;;;;18.25;44.85;102779.56;5012872;28;20057;-77